AFL1191 UWKD-UUEE
Flight info
| Callsign | AFL1191 |
|---|---|
| Flight time | N/A |
| Altitude | 32000 |
| Route | APTAR1H APTAR L158 DIMGI DIMGI3E |
| Aircraft | A320/M-SDE3FGHIRWY/LB1 |
Departure
| Time | 2026-05-07 17:24 |
|---|---|
| Airport | Kazan International Airport (UWKD) |
Arrival
| Time | N/A |
|---|---|
| Airport | Sheremetyevo International Airport (UUEE) |
| Time | Latitude | Longitude | Altitude | Speed | Heading |
|---|---|---|---|---|---|
| 2026-05-07 16:31 | 55.60718 | 49.29964 | 408 ft | 0 kts | 35° |
| 2026-05-07 17:03 | 55.60718 | 49.29963 | 416 ft | 1 kts | 35° |
| 2026-05-07 17:03 | 55.60706 | 49.29949 | 408 ft | 3 kts | 32° |
| 2026-05-07 17:03 | 55.60688 | 49.29931 | 409 ft | 3 kts | 28° |
| 2026-05-07 17:04 | 55.60670 | 49.29915 | 407 ft | 3 kts | 24° |
| 2026-05-07 17:04 | 55.60652 | 49.29900 | 412 ft | 3 kts | 22° |
| 2026-05-07 17:04 | 55.60633 | 49.29887 | 408 ft | 3 kts | 21° |
| 2026-05-07 17:04 | 55.60614 | 49.29873 | 411 ft | 3 kts | 30° |
| 2026-05-07 17:05 | 55.60608 | 49.29866 | 411 ft | 0 kts | 35° |
| 2026-05-07 17:08 | 55.60626 | 49.29885 | 411 ft | 7 kts | 21° |
| 2026-05-07 17:09 | 55.60682 | 49.29817 | 413 ft | 14 kts | 304° |
| 2026-05-07 17:09 | 55.60749 | 49.29645 | 406 ft | 11 kts | 305° |
| 2026-05-07 17:09 | 55.60784 | 49.29553 | 413 ft | 6 kts | 304° |
| 2026-05-07 17:09 | 55.60800 | 49.29510 | 410 ft | 2 kts | 304° |
| 2026-05-07 17:10 | 55.60814 | 49.29473 | 412 ft | 6 kts | 300° |
| 2026-05-07 17:10 | 55.60785 | 49.29393 | 416 ft | 9 kts | 220° |
| 2026-05-07 17:10 | 55.60737 | 49.29333 | 416 ft | 8 kts | 214° |
| 2026-05-07 17:10 | 55.60696 | 49.29284 | 408 ft | 7 kts | 214° |
| 2026-05-07 17:11 | 55.60637 | 49.29213 | 416 ft | 13 kts | 214° |
| 2026-05-07 17:11 | 55.60592 | 49.29149 | 414 ft | 7 kts | 226° |
| 2026-05-07 17:11 | 55.60576 | 49.29032 | 416 ft | 14 kts | 272° |
| 2026-05-07 17:11 | 55.60585 | 49.28815 | 412 ft | 20 kts | 274° |
| 2026-05-07 17:12 | 55.60593 | 49.28645 | 416 ft | 12 kts | 277° |
| 2026-05-07 17:12 | 55.60624 | 49.28525 | 414 ft | 10 kts | 309° |
| 2026-05-07 17:12 | 55.60682 | 49.28383 | 410 ft | 18 kts | 305° |
| 2026-05-07 17:12 | 55.60761 | 49.28181 | 406 ft | 22 kts | 304° |
| 2026-05-07 17:13 | 55.60847 | 49.27955 | 411 ft | 23 kts | 304° |
| 2026-05-07 17:13 | 55.60939 | 49.27721 | 407 ft | 24 kts | 304° |
| 2026-05-07 17:13 | 55.61034 | 49.27478 | 414 ft | 23 kts | 304° |
| 2026-05-07 17:13 | 55.61128 | 49.27232 | 411 ft | 24 kts | 304° |
| 2026-05-07 17:14 | 55.61187 | 49.27080 | 408 ft | 14 kts | 304° |
| 2026-05-07 17:14 | 55.61244 | 49.26933 | 412 ft | 16 kts | 304° |
| 2026-05-07 17:14 | 55.61302 | 49.26783 | 412 ft | 14 kts | 304° |
| 2026-05-07 17:14 | 55.61353 | 49.26651 | 407 ft | 12 kts | 304° |
| 2026-05-07 17:15 | 55.61398 | 49.26537 | 409 ft | 10 kts | 305° |
| 2026-05-07 17:15 | 55.61445 | 49.26416 | 410 ft | 14 kts | 302° |
| 2026-05-07 17:15 | 55.61495 | 49.26286 | 415 ft | 12 kts | 304° |
| 2026-05-07 17:15 | 55.61542 | 49.26165 | 410 ft | 14 kts | 304° |
| 2026-05-07 17:16 | 55.61594 | 49.26031 | 415 ft | 12 kts | 304° |
| 2026-05-07 17:16 | 55.61639 | 49.25915 | 410 ft | 11 kts | 304° |
| 2026-05-07 17:16 | 55.61678 | 49.25816 | 413 ft | 9 kts | 304° |
| 2026-05-07 17:16 | 55.61714 | 49.25722 | 410 ft | 9 kts | 304° |
| 2026-05-07 17:17 | 55.61755 | 49.25616 | 408 ft | 14 kts | 304° |
| 2026-05-07 17:17 | 55.61808 | 49.25478 | 413 ft | 13 kts | 304° |
| 2026-05-07 17:17 | 55.61847 | 49.25374 | 412 ft | 7 kts | 295° |
| 2026-05-07 17:17 | 55.61851 | 49.25355 | 415 ft | 0 kts | 285° |
| 2026-05-07 17:21 | 55.61852 | 49.25337 | 415 ft | 4 kts | 275° |
| 2026-05-07 17:21 | 55.61832 | 49.25267 | 411 ft | 7 kts | 220° |
| 2026-05-07 17:21 | 55.61807 | 49.25237 | 413 ft | 3 kts | 214° |
| 2026-05-07 17:21 | 55.61766 | 49.25188 | 409 ft | 9 kts | 214° |
| 2026-05-07 17:22 | 55.61715 | 49.25130 | 409 ft | 8 kts | 206° |
| 2026-05-07 17:22 | 55.61683 | 49.25148 | 410 ft | 3 kts | 133° |
| 2026-05-07 17:22 | 55.61677 | 49.25160 | 410 ft | 0 kts | 127° |
| 2026-05-07 17:23 | 55.61667 | 49.25188 | 407 ft | 20 kts | 123° |
| 2026-05-07 17:23 | 55.61442 | 49.25772 | 412 ft | 91 kts | 124° |
| 2026-05-07 17:24 | 55.60969 | 49.26991 | 412 ft | 146 kts | 124° |
| 2026-05-07 17:24 | 55.60330 | 49.28654 | 666 ft | 171 kts | 124° |
| 2026-05-07 17:24 | 55.59643 | 49.30410 | 1367 ft | 176 kts | 126° |
| 2026-05-07 17:24 | 55.58926 | 49.32252 | 1839 ft | 192 kts | 126° |
| 2026-05-07 17:25 | 55.58125 | 49.34302 | 2119 ft | 214 kts | 126° |
| 2026-05-07 17:25 | 55.57235 | 49.36582 | 2550 ft | 233 kts | 125° |
| 2026-05-07 17:25 | 55.56306 | 49.38963 | 3325 ft | 238 kts | 125° |
| 2026-05-07 17:25 | 55.55342 | 49.41372 | 4126 ft | 243 kts | 131° |
| 2026-05-07 17:26 | 55.53912 | 49.43112 | 4555 ft | 264 kts | 166° |
| 2026-05-07 17:26 | 55.52068 | 49.43026 | 5148 ft | 273 kts | 203° |
| 2026-05-07 17:26 | 55.50581 | 49.41097 | 5940 ft | 273 kts | 237° |
| 2026-05-07 17:26 | 55.49713 | 49.38138 | 6796 ft | 274 kts | 246° |
| 2026-05-07 17:27 | 55.49020 | 49.35004 | 7575 ft | 276 kts | 262° |
| 2026-05-07 17:27 | 55.49143 | 49.31663 | 7984 ft | 276 kts | 286° |
| 2026-05-07 17:27 | 55.49617 | 49.28382 | 8881 ft | 277 kts | 284° |
| 2026-05-07 17:27 | 55.50046 | 49.25056 | 9771 ft | 280 kts | 283° |
| 2026-05-07 17:28 | 55.50460 | 49.21645 | 10372 ft | 293 kts | 283° |
| 2026-05-07 17:28 | 55.50891 | 49.17984 | 10631 ft | 317 kts | 282° |
| 2026-05-07 17:28 | 55.51341 | 49.14093 | 11182 ft | 328 kts | 282° |
| 2026-05-07 17:28 | 55.51734 | 49.10655 | 11828 ft | 332 kts | 282° |
| 2026-05-07 17:29 | 55.52116 | 49.07296 | 12481 ft | 335 kts | 282° |
| 2026-05-07 17:29 | 55.52581 | 49.03248 | 13267 ft | 338 kts | 282° |
| 2026-05-07 17:29 | 55.53053 | 48.99157 | 13991 ft | 342 kts | 282° |
| 2026-05-07 17:29 | 55.53530 | 48.95024 | 14652 ft | 346 kts | 282° |
| 2026-05-07 17:30 | 55.54013 | 48.90843 | 15316 ft | 349 kts | 282° |
| 2026-05-07 17:30 | 55.54499 | 48.86620 | 15976 ft | 353 kts | 282° |
| 2026-05-07 17:30 | 55.54988 | 48.82350 | 16641 ft | 357 kts | 281° |
| 2026-05-07 17:30 | 55.55479 | 48.78035 | 17301 ft | 360 kts | 281° |
| 2026-05-07 17:31 | 55.55971 | 48.73679 | 17951 ft | 364 kts | 281° |
| 2026-05-07 17:31 | 55.56467 | 48.69277 | 18548 ft | 367 kts | 281° |
| 2026-05-07 17:31 | 55.56965 | 48.64836 | 19097 ft | 370 kts | 281° |
| 2026-05-07 17:31 | 55.57468 | 48.60356 | 19658 ft | 373 kts | 281° |
| 2026-05-07 17:32 | 55.57975 | 48.55839 | 20212 ft | 376 kts | 281° |
| 2026-05-07 17:32 | 55.58485 | 48.51288 | 20760 ft | 379 kts | 281° |
| 2026-05-07 17:32 | 55.58995 | 48.46701 | 21300 ft | 382 kts | 281° |
| 2026-05-07 17:32 | 55.59506 | 48.42082 | 21834 ft | 385 kts | 281° |
| 2026-05-07 17:33 | 55.60018 | 48.37424 | 22369 ft | 388 kts | 281° |
| 2026-05-07 17:33 | 55.60533 | 48.32726 | 22885 ft | 390 kts | 281° |
| 2026-05-07 17:33 | 55.61050 | 48.27992 | 23401 ft | 393 kts | 281° |
| 2026-05-07 17:33 | 55.61569 | 48.23223 | 23866 ft | 396 kts | 281° |
| 2026-05-07 17:34 | 55.62090 | 48.18426 | 24296 ft | 399 kts | 281° |
| 2026-05-07 17:34 | 55.62614 | 48.13591 | 24733 ft | 401 kts | 281° |
| 2026-05-07 17:34 | 55.63140 | 48.08732 | 25160 ft | 403 kts | 281° |
| 2026-05-07 17:34 | 55.63667 | 48.03839 | 25593 ft | 406 kts | 281° |
| 2026-05-07 17:35 | 55.64194 | 47.98925 | 26003 ft | 408 kts | 281° |
| 2026-05-07 17:35 | 55.64723 | 47.93974 | 26415 ft | 410 kts | 280° |
| 2026-05-07 17:35 | 55.65253 | 47.88999 | 26820 ft | 412 kts | 281° |
| 2026-05-07 17:35 | 55.65785 | 47.84000 | 27219 ft | 415 kts | 280° |
| 2026-05-07 17:36 | 55.66318 | 47.78964 | 27618 ft | 417 kts | 280° |
| 2026-05-07 17:36 | 55.66847 | 47.73897 | 28019 ft | 419 kts | 280° |
| 2026-05-07 17:36 | 55.67365 | 47.68876 | 28411 ft | 422 kts | 280° |
| 2026-05-07 17:36 | 55.67894 | 47.63753 | 28785 ft | 424 kts | 280° |
| 2026-05-07 17:37 | 55.68429 | 47.58599 | 29152 ft | 426 kts | 280° |
| 2026-05-07 17:37 | 55.68967 | 47.53418 | 29515 ft | 428 kts | 280° |
| 2026-05-07 17:37 | 55.69503 | 47.48217 | 29857 ft | 431 kts | 280° |
| 2026-05-07 17:37 | 55.70038 | 47.42978 | 30181 ft | 433 kts | 280° |
| 2026-05-07 17:38 | 55.70571 | 47.37714 | 30475 ft | 435 kts | 280° |
| 2026-05-07 17:38 | 55.71104 | 47.32430 | 30774 ft | 436 kts | 280° |
| 2026-05-07 17:38 | 55.71639 | 47.27126 | 31058 ft | 438 kts | 280° |
| 2026-05-07 17:38 | 55.72172 | 47.21814 | 31461 ft | 437 kts | 280° |
| 2026-05-07 17:39 | 55.72700 | 47.16523 | 31851 ft | 436 kts | 280° |
| 2026-05-07 17:39 | 55.73224 | 47.11243 | 31958 ft | 431 kts | 280° |
| 2026-05-07 17:39 | 55.74238 | 47.00984 | 31971 ft | 417 kts | 279° |
| 2026-05-07 17:40 | 55.75226 | 46.90884 | 31977 ft | 415 kts | 279° |
| 2026-05-07 17:40 | 55.76196 | 46.80799 | 31965 ft | 414 kts | 279° |
| 2026-05-07 17:41 | 55.77163 | 46.70727 | 31965 ft | 414 kts | 279° |
| 2026-05-07 17:41 | 55.78125 | 46.60655 | 31962 ft | 413 kts | 279° |
| 2026-05-07 17:42 | 55.79078 | 46.50583 | 31956 ft | 413 kts | 279° |
| 2026-05-07 17:42 | 55.79648 | 46.40439 | 31956 ft | 413 kts | 273° |
| 2026-05-07 17:43 | 55.79984 | 46.30253 | 31951 ft | 413 kts | 273° |
| 2026-05-07 17:43 | 55.80309 | 46.20062 | 31955 ft | 413 kts | 273° |
| 2026-05-07 17:44 | 55.80624 | 46.09877 | 31953 ft | 413 kts | 273° |
| 2026-05-07 17:44 | 55.80936 | 45.99698 | 31950 ft | 412 kts | 273° |
| 2026-05-07 17:45 | 55.81235 | 45.89583 | 31940 ft | 412 kts | 273° |
| 2026-05-07 17:45 | 55.81534 | 45.79421 | 31941 ft | 412 kts | 273° |
| 2026-05-07 17:46 | 55.81823 | 45.69257 | 31942 ft | 411 kts | 272° |
| 2026-05-07 17:46 | 55.82098 | 45.59099 | 31929 ft | 411 kts | 272° |
| 2026-05-07 17:47 | 55.82365 | 45.48954 | 31939 ft | 411 kts | 272° |
| 2026-05-07 17:47 | 55.82622 | 45.38804 | 31937 ft | 411 kts | 272° |
| 2026-05-07 17:48 | 55.82874 | 45.28658 | 31930 ft | 410 kts | 272° |
| 2026-05-07 17:48 | 55.83116 | 45.18523 | 31935 ft | 410 kts | 272° |
| 2026-05-07 17:49 | 55.83350 | 45.08378 | 31926 ft | 410 kts | 272° |
| 2026-05-07 17:49 | 55.83574 | 44.98307 | 31934 ft | 410 kts | 272° |
| 2026-05-07 17:50 | 55.83799 | 44.88161 | 31926 ft | 410 kts | 272° |
| 2026-05-07 17:50 | 55.84017 | 44.78015 | 31924 ft | 410 kts | 272° |
| 2026-05-07 17:51 | 55.84223 | 44.67867 | 31924 ft | 410 kts | 272° |
| 2026-05-07 17:51 | 55.84422 | 44.57717 | 31926 ft | 411 kts | 272° |
| 2026-05-07 17:52 | 55.84618 | 44.47556 | 31924 ft | 411 kts | 272° |
| 2026-05-07 17:52 | 55.84806 | 44.37394 | 31924 ft | 411 kts | 272° |
| 2026-05-07 17:53 | 55.84988 | 44.27225 | 31926 ft | 411 kts | 272° |
| 2026-05-07 17:53 | 55.85152 | 44.17052 | 31917 ft | 411 kts | 271° |
| 2026-05-07 17:54 | 55.85309 | 44.06880 | 31912 ft | 411 kts | 271° |
| 2026-05-07 17:54 | 55.85456 | 43.96708 | 31917 ft | 411 kts | 271° |
| 2026-05-07 17:55 | 55.85596 | 43.86613 | 31926 ft | 411 kts | 271° |
| 2026-05-07 17:55 | 55.85728 | 43.76439 | 31927 ft | 411 kts | 271° |
| 2026-05-07 17:56 | 55.85858 | 43.66263 | 31926 ft | 411 kts | 271° |
| 2026-05-07 17:56 | 55.85971 | 43.56095 | 31926 ft | 411 kts | 271° |
| 2026-05-07 17:57 | 55.86058 | 43.47653 | 31917 ft | 410 kts | 271° |
| 2026-05-07 17:57 | 55.86187 | 43.35781 | 31904 ft | 410 kts | 271° |
| 2026-05-07 17:58 | 55.86291 | 43.25629 | 31913 ft | 410 kts | 271° |
| 2026-05-07 17:58 | 55.86379 | 43.15478 | 31911 ft | 410 kts | 271° |
| 2026-05-07 17:59 | 55.86458 | 43.05324 | 31911 ft | 410 kts | 271° |
| 2026-05-07 17:59 | 55.86532 | 42.95168 | 31912 ft | 410 kts | 271° |
| 2026-05-07 18:00 | 55.86601 | 42.85016 | 31902 ft | 410 kts | 271° |
| 2026-05-07 18:00 | 55.86659 | 42.74857 | 31909 ft | 410 kts | 271° |
| 2026-05-07 18:01 | 55.86706 | 42.64711 | 31891 ft | 410 kts | 271° |
| 2026-05-07 18:01 | 55.86749 | 42.54642 | 31892 ft | 410 kts | 270° |
| 2026-05-07 18:02 | 55.86786 | 42.39432 | 31914 ft | 409 kts | 270° |
| 2026-05-07 18:03 | 55.86800 | 42.29296 | 31909 ft | 409 kts | 270° |
| 2026-05-07 18:03 | 55.86819 | 42.19164 | 31894 ft | 409 kts | 270° |
| 2026-05-07 18:04 | 55.86826 | 42.09027 | 31906 ft | 409 kts | 270° |
| 2026-05-07 18:04 | 55.86820 | 41.98896 | 31895 ft | 409 kts | 270° |
| 2026-05-07 18:05 | 55.86805 | 41.88772 | 31907 ft | 409 kts | 270° |
| 2026-05-07 18:05 | 55.86781 | 41.78651 | 31899 ft | 409 kts | 270° |
| 2026-05-07 18:06 | 55.86585 | 41.68534 | 31907 ft | 409 kts | 267° |
| 2026-05-07 18:06 | 55.86229 | 41.58438 | 31898 ft | 408 kts | 266° |
| 2026-05-07 18:07 | 55.85875 | 41.48350 | 31911 ft | 408 kts | 267° |
| 2026-05-07 18:07 | 55.85555 | 41.38274 | 31902 ft | 408 kts | 267° |
| 2026-05-07 18:08 | 55.85241 | 41.28202 | 31913 ft | 407 kts | 267° |
| 2026-05-07 18:08 | 55.84911 | 41.18144 | 31913 ft | 407 kts | 267° |
| 2026-05-07 18:09 | 55.84571 | 41.08154 | 31915 ft | 407 kts | 266° |
| 2026-05-07 18:09 | 55.84221 | 40.98114 | 31910 ft | 406 kts | 266° |
| 2026-05-07 18:10 | 55.83871 | 40.88086 | 31909 ft | 406 kts | 266° |
| 2026-05-07 18:10 | 55.83504 | 40.78062 | 31908 ft | 406 kts | 266° |
| 2026-05-07 18:11 | 55.83133 | 40.68053 | 31902 ft | 405 kts | 266° |
| 2026-05-07 18:11 | 55.82749 | 40.58052 | 31911 ft | 405 kts | 266° |
| 2026-05-07 18:12 | 55.82347 | 40.48051 | 31907 ft | 405 kts | 266° |
| 2026-05-07 18:12 | 55.82005 | 40.39757 | 31906 ft | 406 kts | 266° |
| 2026-05-07 18:13 | 55.81577 | 40.29533 | 31363 ft | 420 kts | 266° |
| 2026-05-07 18:13 | 55.81355 | 40.24360 | 30564 ft | 419 kts | 266° |
| 2026-05-07 18:13 | 55.81132 | 40.19214 | 29935 ft | 416 kts | 266° |
| 2026-05-07 18:13 | 55.80911 | 40.14098 | 29267 ft | 413 kts | 266° |
| 2026-05-07 18:14 | 55.80693 | 40.09034 | 28607 ft | 410 kts | 265° |
| 2026-05-07 18:14 | 55.80474 | 40.04032 | 28108 ft | 403 kts | 265° |
| 2026-05-07 18:14 | 55.80256 | 39.99098 | 27608 ft | 397 kts | 265° |
| 2026-05-07 18:14 | 55.80041 | 39.94243 | 27142 ft | 391 kts | 265° |
| 2026-05-07 18:15 | 55.79826 | 39.89460 | 26675 ft | 385 kts | 265° |
| 2026-05-07 18:15 | 55.79610 | 39.84754 | 26236 ft | 379 kts | 265° |
| 2026-05-07 18:15 | 55.79393 | 39.80115 | 25817 ft | 373 kts | 265° |
| 2026-05-07 18:15 | 55.79138 | 39.75573 | 25463 ft | 366 kts | 264° |
| 2026-05-07 18:16 | 55.78845 | 39.71116 | 25227 ft | 362 kts | 263° |
| 2026-05-07 18:16 | 55.78605 | 39.66687 | 24990 ft | 359 kts | 270° |
| 2026-05-07 18:16 | 55.78973 | 39.62308 | 24874 ft | 359 kts | 282° |
| 2026-05-07 18:16 | 55.79564 | 39.57991 | 24791 ft | 361 kts | 282° |
| 2026-05-07 18:17 | 55.80155 | 39.53674 | 24545 ft | 359 kts | 282° |
| 2026-05-07 18:17 | 55.80743 | 39.49379 | 24320 ft | 357 kts | 282° |
| 2026-05-07 18:17 | 55.81327 | 39.45099 | 24081 ft | 355 kts | 282° |
| 2026-05-07 18:17 | 55.81899 | 39.40891 | 23851 ft | 354 kts | 282° |
| 2026-05-07 18:18 | 55.82473 | 39.36647 | 23612 ft | 352 kts | 282° |
| 2026-05-07 18:18 | 55.83042 | 39.32419 | 23377 ft | 351 kts | 282° |
| 2026-05-07 18:18 | 55.83607 | 39.28201 | 23101 ft | 349 kts | 282° |
| 2026-05-07 18:18 | 55.84170 | 39.24009 | 22826 ft | 348 kts | 282° |
| 2026-05-07 18:19 | 55.84729 | 39.19834 | 22555 ft | 346 kts | 282° |
| 2026-05-07 18:19 | 55.85283 | 39.15673 | 22288 ft | 345 kts | 281° |
| 2026-05-07 18:19 | 55.85834 | 39.11530 | 22023 ft | 343 kts | 281° |
| 2026-05-07 18:19 | 55.86381 | 39.07404 | 21755 ft | 342 kts | 281° |
| 2026-05-07 18:20 | 55.86925 | 39.03293 | 21500 ft | 340 kts | 281° |
| 2026-05-07 18:20 | 55.87464 | 38.99198 | 21238 ft | 339 kts | 281° |
| 2026-05-07 18:20 | 55.88000 | 38.95117 | 20988 ft | 338 kts | 281° |
| 2026-05-07 18:20 | 55.88531 | 38.91055 | 20733 ft | 336 kts | 281° |
| 2026-05-07 18:21 | 55.89059 | 38.87003 | 20479 ft | 335 kts | 281° |
| 2026-05-07 18:21 | 55.89581 | 38.82975 | 20230 ft | 333 kts | 281° |
| 2026-05-07 18:21 | 55.90103 | 38.78954 | 19982 ft | 332 kts | 281° |
| 2026-05-07 18:21 | 55.90623 | 38.74951 | 19736 ft | 331 kts | 281° |
| 2026-05-07 18:22 | 55.91140 | 38.70967 | 19490 ft | 329 kts | 281° |
| 2026-05-07 18:22 | 55.91481 | 38.68334 | 19331 ft | 329 kts | 281° |
| 2026-05-07 18:22 | 55.92163 | 38.63042 | 18994 ft | 327 kts | 280° |
| 2026-05-07 18:22 | 55.92795 | 38.59212 | 18778 ft | 328 kts | 292° |
| 2026-05-07 18:23 | 55.94034 | 38.55779 | 18538 ft | 332 kts | 303° |
| 2026-05-07 18:23 | 55.95435 | 38.52509 | 18302 ft | 331 kts | 303° |
| 2026-05-07 18:23 | 55.96845 | 38.49262 | 18066 ft | 330 kts | 303° |
| 2026-05-07 18:23 | 55.98254 | 38.46038 | 17791 ft | 329 kts | 303° |
| 2026-05-07 18:24 | 55.99657 | 38.42822 | 17524 ft | 327 kts | 303° |
| 2026-05-07 18:24 | 56.01051 | 38.39613 | 17264 ft | 326 kts | 303° |
| 2026-05-07 18:24 | 56.02432 | 38.36417 | 16999 ft | 324 kts | 303° |
| 2026-05-07 18:24 | 56.03806 | 38.33227 | 16739 ft | 323 kts | 303° |
| 2026-05-07 18:25 | 56.05170 | 38.30053 | 16481 ft | 322 kts | 303° |
| 2026-05-07 18:25 | 56.06531 | 38.26884 | 16231 ft | 320 kts | 303° |
| 2026-05-07 18:25 | 56.07884 | 38.23728 | 15974 ft | 319 kts | 302° |
| 2026-05-07 18:25 | 56.09230 | 38.20584 | 15717 ft | 318 kts | 302° |
| 2026-05-07 18:26 | 56.10573 | 38.17447 | 15477 ft | 316 kts | 302° |